TimeCST,TemperatureF,Dew PointF,Humidity,Sea Level PressureIn,VisibilityMPH,Wind Direction,Wind SpeedMPH,Gust SpeedMPH,PrecipitationIn,Events,Conditions,WindDirDegrees,DateUTC
12:39 AM,15.8,10.4,79,29.79,10.0,West,16.1,21.9,0.00,,Mostly Cloudy,280,2013-01-31 06:39:00
12:52 AM,16.0,10.0,77,29.81,10.0,West,13.8,-,0.00,,Mostly Cloudy,280,2013-01-31 06:52:00
1:52 AM,18.0,12.0,78,29.83,10.0,West,11.5,-,N/A,,Overcast,280,2013-01-31 07:52:00
2:17 AM,17.6,12.2,79,29.81,10.0,WNW,13.8,20.7,N/A,,Overcast,290,2013-01-31 08:17:00
3:22 AM,17.6,10.4,73,29.81,10.0,WNW,17.3,25.3,N/A,,Overcast,290,2013-01-31 09:22:00
3:52 AM,14.0,6.1,71,29.86,10.0,WNW,19.6,29.9,0.00,,Scattered Clouds,290,2013-01-31 09:52:00
4:52 AM,12.9,5.0,71,29.87,10.0,West,23.0,29.9,N/A,,Partly Cloudy,280,2013-01-31 10:52:00
5:32 AM,12.2,3.2,67,29.85,10.0,WNW,15.0,23.0,N/A,,Mostly Cloudy,290,2013-01-31 11:32:00
5:52 AM,12.0,5.0,73,29.88,10.0,WNW,15.0,23.0,N/A,,Mostly Cloudy,290,2013-01-31 11:52:00
6:13 AM,12.2,3.2,67,29.86,10.0,West,16.1,23.0,N/A,,Partly Cloudy,280,2013-01-31 12:13:00
6:52 AM,10.9,3.9,73,29.90,10.0,West,15.0,-,N/A,,Clear,280,2013-01-31 12:52:00
7:52 AM,10.9,3.9,73,29.94,10.0,WNW,13.8,25.3,N/A,,Scattered Clouds,290,2013-01-31 13:52:00
8:32 AM,10.4,3.2,73,29.92,10.0,West,16.1,24.2,N/A,,Mostly Cloudy,280,2013-01-31 14:32:00
8:52 AM,10.0,3.0,73,29.96,10.0,WNW,20.7,28.8,N/A,,Mostly Cloudy,290,2013-01-31 14:52:00
9:38 AM,10.4,3.2,73,29.94,10.0,WNW,19.6,-,N/A,,Scattered Clouds,300,2013-01-31 15:38:00
9:52 AM,10.9,3.0,70,29.98,10.0,WNW,19.6,26.5,N/A,,Partly Cloudy,290,2013-01-31 15:52:00
10:44 AM,12.2,5.0,73,29.98,10.0,West,20.7,26.5,N/A,,Mostly Cloudy,280,2013-01-31 16:44:00
10:52 AM,12.0,3.9,70,30.01,10.0,West,18.4,26.5,N/A,,Mostly Cloudy,280,2013-01-31 16:52:00
11:52 AM,12.0,3.9,70,30.04,6.0,West,20.7,26.5,0.00,Snow,Light Snow,270,2013-01-31 17:52:00
12:22 PM,10.4,1.4,67,30.00,10.0,West,18.4,25.3,0.00,,Unknown,280,2013-01-31 18:22:00
12:33 PM,10.4,1.4,67,30.01,9.0,WNW,18.4,26.5,0.00,,Mostly Cloudy,290,2013-01-31 18:33:00
12:52 PM,10.9,1.9,67,30.04,8.0,WNW,21.9,31.1,0.00,,Mostly Cloudy,290,2013-01-31 18:52:00
1:14 PM,10.4,1.4,67,30.01,5.0,WNW,26.5,33.4,0.00,Snow,Blowing Snow,300,2013-01-31 19:14:00
1:52 PM,9.0,1.9,73,30.06,2.0,WNW,23.0,33.4,0.00,Snow,Light Snow,290,2013-01-31 19:52:00
2:01 PM,8.6,-0.4,67,30.03,9.0,WNW,23.0,33.4,0.00,,Mostly Cloudy,300,2013-01-31 20:01:00
2:52 PM,9.0,-0.0,67,30.08,6.0,WNW,19.6,31.1,0.00,,Haze,300,2013-01-31 20:52:00
3:45 PM,8.6,1.4,73,30.08,1.8,WNW,24.2,33.4,0.00,Snow,Blowing Snow,290,2013-01-31 21:45:00
3:52 PM,8.1,-0.9,67,30.12,2.5,WNW,20.7,35.7,0.00,Snow,Light Snow,290,2013-01-31 21:52:00
4:00 PM,8.6,-0.4,67,30.09,8.0,West,16.1,31.1,0.00,,Mostly Cloudy,280,2013-01-31 22:00:00
4:30 PM,8.6,1.4,73,30.09,2.0,WNW,18.4,24.2,0.00,Snow,Blowing Snow,300,2013-01-31 22:30:00
4:43 PM,8.6,-0.4,67,30.09,2.0,WNW,24.2,32.2,0.00,Snow,Light Snow,290,2013-01-31 22:43:00
4:52 PM,7.0,-2.0,67,30.14,2.0,WNW,24.2,38.0,0.00,Snow,Blowing Snow,290,2013-01-31 22:52:00
5:10 PM,6.8,-2.2,67,30.11,10.0,WNW,19.6,32.2,N/A,Snow,Blowing Snow,290,2013-01-31 23:10:00
5:52 PM,5.0,-2.9,70,30.18,10.0,WNW,18.4,32.2,N/A,,Partly Cloudy,290,2013-01-31 23:52:00
6:52 PM,5.0,-2.9,70,30.21,10.0,WNW,24.2,31.1,N/A,,Overcast,290,2013-02-01 00:52:00
7:02 PM,5.0,-2.2,72,30.17,9.0,WNW,16.1,29.9,N/A,,Overcast,290,2013-02-01 01:02:00
7:52 PM,5.0,-2.9,70,30.24,8.0,WNW,18.4,25.3,N/A,,Overcast,300,2013-02-01 01:52:00
8:22 PM,3.2,-5.8,66,30.21,10.0,WNW,23.0,33.4,N/A,,Scattered Clouds,300,2013-02-01 02:22:00
8:52 PM,3.0,-5.1,69,30.27,9.0,WNW,17.3,27.6,N/A,,Mostly Cloudy,290,2013-02-01 02:52:00
9:52 PM,3.0,-7.1,63,30.30,10.0,NW,19.6,25.3,N/A,,Mostly Cloudy,310,2013-02-01 03:52:00
10:52 PM,1.9,-6.0,69,30.32,10.0,WNW,16.1,26.5,N/A,,Overcast,300,2013-02-01 04:52:00
11:28 PM,1.4,-7.6,66,30.29,10.0,WNW,16.1,21.9,N/A,,Scattered Clouds,300,2013-02-01 05:28:00
11:41 PM,1.4,-5.8,72,30.29,10.0,West,11.5,-,N/A,,Mostly Cloudy,280,2013-02-01 05:41:00
11:52 PM,1.9,-6.0,69,30.35,10.0,WNW,19.6,24.2,N/A,,Scattered Clouds,300,2013-02-01 05:52:00